Time,TemperatureF,DewpointF,PressureIn,WindDirection,WindDirectionDegrees,WindSpeedMPH,WindSpeedGustMPH,Humidity,HourlyPrecipIn,Conditions,Clouds,dailyrainin,SoftwareType,DateUTC
2014-02-27 00:43:00,72.0,-99.9,-100.00,SW,225,6.0,11.0,-999,-99.99,,,-99.99,,2014-02-27 05:43:00,
2014-02-27 01:42:00,70.0,-99.9,-100.00,West,279,8.0,19.0,-999,-99.99,,,-99.99,,2014-02-27 06:42:00,
2014-02-27 02:42:00,69.0,-99.9,-100.00,WSW,246,4.0,8.0,-999,-99.99,,,-99.99,,2014-02-27 07:42:00,
2014-02-27 03:42:00,69.0,-99.9,-100.00,WSW,245,4.0,9.0,-999,-99.99,,,-99.99,,2014-02-27 08:42:00,
2014-02-27 04:43:00,69.0,-99.9,-100.00,WSW,257,4.0,11.0,-999,-99.99,,,-99.99,,2014-02-27 09:43:00,
2014-02-27 05:43:00,69.0,-99.9,-100.00,WNW,288,5.0,10.0,-999,-99.99,,,-99.99,,2014-02-27 10:43:00,
2014-02-27 06:43:00,69.0,-99.9,-100.00,WNW,292,7.0,18.0,-999,-99.99,,,-99.99,,2014-02-27 11:43:00,
2014-02-27 07:42:00,68.0,-99.9,-100.00,NNW,327,8.0,18.0,-999,-99.99,,,-99.99,,2014-02-27 12:42:00,
2014-02-27 09:42:00,68.0,-99.9,-100.00,North,350,5.0,11.0,-999,-99.99,,,-99.99,,2014-02-27 14:42:00,
2014-02-27 10:43:00,70.0,-99.9,-100.00,NNW,336,6.0,11.0,-999,-99.99,,,-99.99,,2014-02-27 15:43:00,
2014-02-27 11:43:00,72.0,-99.9,-100.00,NNW,341,5.0,12.0,-999,-99.99,,,-99.99,,2014-02-27 16:43:00,
2014-02-27 13:43:00,73.0,-99.9,-100.00,WNW,301,8.0,15.0,-999,-99.99,,,-99.99,,2014-02-27 18:43:00,
2014-02-27 14:42:00,74.0,-99.9,-100.00,WNW,296,6.0,16.0,-999,-99.99,,,-99.99,,2014-02-27 19:42:00,
2014-02-27 16:43:00,70.0,-99.9,-100.00,NW,306,9.0,19.0,-999,-99.99,,,-99.99,,2014-02-27 21:43:00,
2014-02-27 17:43:00,67.0,-99.9,-100.00,NW,305,8.0,16.0,-999,-99.99,,,-99.99,,2014-02-27 22:43:00,
2014-02-27 18:42:00,66.0,-99.9,-100.00,NW,319,8.0,13.0,-999,-99.99,,,-99.99,,2014-02-27 23:42:00,
2014-02-27 19:42:00,66.0,-99.9,-100.00,NW,320,11.0,25.0,-999,-99.99,,,-99.99,,2014-02-28 00:42:00,
2014-02-27 20:42:00,64.0,-99.9,-100.00,NW,320,6.0,13.0,-999,-99.99,,,-99.99,,2014-02-28 01:42:00,
2014-02-27 21:42:00,62.0,-99.9,-100.00,NNW,333,7.0,15.0,-999,-99.99,,,-99.99,,2014-02-28 02:42:00,
2014-02-27 22:44:00,61.0,-99.9,-100.00,NNE,13,4.0,8.0,-999,-99.99,,,-99.99,,2014-02-28 03:44:00,
2014-02-27 23:43:00,61.0,-99.9,-100.00,NE,45,3.0,6.0,-999,-99.99,,,-99.99,,2014-02-28 04:43:00,